createdAt,value
2023-01-27T00:01:14.990Z,98513.97
2023-01-27T00:03:42.405Z,98513.94
2023-01-27T00:06:12.018Z,98516.63
2023-01-27T00:08:39.214Z,98520.41
2023-01-27T00:11:25.191Z,98518.38
2023-01-27T00:13:52.524Z,98511.84
2023-01-27T00:16:19.898Z,98512.88
2023-01-27T00:18:47.303Z,98518.88
2023-01-27T00:21:33.123Z,98518.09
2023-01-27T00:24:19.074Z,98515.97
2023-01-27T00:26:46.516Z,98507.44
2023-01-27T00:29:13.853Z,98514.31
2023-01-27T00:31:59.175Z,98511.81
2023-01-27T00:34:26.522Z,98511.91
2023-01-27T00:36:53.935Z,98511.84
2023-01-27T00:39:21.259Z,98509.66
2023-01-27T00:41:48.603Z,98510.28
2023-01-27T00:44:16.044Z,98517.41
2023-01-27T00:46:43.535Z,98518.56
2023-01-27T00:49:13.342Z,98518.09
2023-01-27T00:51:40.565Z,98513.94
2023-01-27T00:54:08.246Z,98520.88
2023-01-27T00:56:35.734Z,98511.44
2023-01-27T00:59:03.370Z,98513.75
2023-01-27T01:01:31.022Z,98513.00
2023-01-27T01:03:59.850Z,98512.53
2023-01-27T01:06:27.899Z,98513.00
2023-01-27T01:08:57.063Z,98527.56
2023-01-27T01:11:25.068Z,98522.09
2023-01-27T01:13:54.820Z,98533.50
2023-01-27T01:16:24.582Z,98527.69
2023-01-27T01:18:51.997Z,98530.44
2023-01-27T01:21:20.511Z,98536.38
2023-01-27T01:23:47.981Z,98531.25
2023-01-27T01:26:17.209Z,98534.78
2023-01-27T01:28:45.611Z,98532.09
2023-01-27T01:31:20.401Z,98533.97
2023-01-27T01:33:48.555Z,98524.97
2023-01-27T01:36:19.105Z,98518.56
2023-01-27T01:38:46.625Z,98522.59
2023-01-27T01:41:24.206Z,98521.22
2023-01-27T01:43:52.059Z,98518.28
2023-01-27T01:46:20.483Z,98518.56
2023-01-27T01:48:56.315Z,98519.03
2023-01-27T01:51:44.946Z,98519.50
2023-01-27T01:54:21.622Z,98505.97
2023-01-27T01:57:07.402Z,98509.78
2023-01-27T01:59:44.906Z,98516.41
2023-01-27T02:02:18.189Z,98503.63
2023-01-27T02:05:00.794Z,98498.84
2023-01-27T02:07:53.623Z,98500.72
2023-01-27T02:10:23.969Z,98495.53
2023-01-27T02:12:51.466Z,98504.06
2023-01-27T02:15:19.294Z,98492.44
2023-01-27T02:17:47.168Z,98489.03
2023-01-27T02:20:29.721Z,98485.09
2023-01-27T02:23:14.110Z,98491.66
2023-01-27T02:26:07.279Z,98492.81
2023-01-27T02:28:34.449Z,98495.09
2023-01-27T02:31:02.303Z,98495.63
2023-01-27T02:33:29.439Z,98497.28
2023-01-27T02:36:17.731Z,98490.69
2023-01-27T02:38:50.206Z,98495.56
2023-01-27T02:41:20.459Z,98499.53
2023-01-27T02:43:49.543Z,98498.06
2023-01-27T02:46:17.375Z,98499.41
2023-01-27T02:48:44.777Z,98498.44
2023-01-27T02:51:12.369Z,98492.78
2023-01-27T02:53:43.146Z,98485.97
2023-01-27T02:56:10.354Z,98482.28
2023-01-27T02:58:37.656Z,98486.19
2023-01-27T03:01:12.426Z,98491.06
2023-01-27T03:03:47.527Z,98485.72
2023-01-27T03:06:19.591Z,98484.75
2023-01-27T03:08:46.981Z,98490.84
2023-01-27T03:11:35.684Z,98499.41
2023-01-27T03:14:04.282Z,98502.75
2023-01-27T03:16:50.179Z,98497.25
2023-01-27T03:19:17.996Z,98497.34
2023-01-27T03:21:45.366Z,98496.78
2023-01-27T03:24:13.154Z,98506.16
2023-01-27T03:26:40.784Z,98497.50
2023-01-27T03:29:28.602Z,98495.81
2023-01-27T03:31:56.640Z,98504.16
2023-01-27T03:34:24.132Z,98502.72
2023-01-27T03:37:15.315Z,98503.91
2023-01-27T03:40:02.318Z,98500.66
2023-01-27T03:42:48.813Z,98496.50
2023-01-27T03:45:34.742Z,98494.84
2023-01-27T03:48:02.142Z,98492.94
2023-01-27T03:50:37.768Z,98477.38
2023-01-27T03:53:05.822Z,98494.41
2023-01-27T03:55:35.062Z,98492.22
2023-01-27T03:58:19.679Z,98496.28
2023-01-27T04:00:53.441Z,98497.81
2023-01-27T04:03:40.836Z,98499.94
2023-01-27T04:06:33.886Z,98497.81
2023-01-27T04:09:01.369Z,98502.38
2023-01-27T04:11:48.176Z,98505.31
2023-01-27T04:14:16.145Z,98517.66
2023-01-27T04:16:43.768Z,98511.38
2023-01-27T04:19:12.454Z,98506.72
2023-01-27T04:21:40.229Z,98508.50
2023-01-27T04:24:17.360Z,98508.16
2023-01-27T04:26:45.571Z,98509.09
2023-01-27T04:29:13.722Z,98514.50
2023-01-27T04:31:41.436Z,98513.25
2023-01-27T04:34:08.947Z,98493.19
2023-01-27T04:36:36.305Z,98500.84
2023-01-27T04:39:03.666Z,98522.19
2023-01-27T04:41:30.736Z,98513.28
2023-01-27T04:43:58.172Z,98509.13
2023-01-27T04:46:25.560Z,98515.44
2023-01-27T04:48:52.995Z,98527.41
2023-01-27T04:51:20.338Z,98517.56
2023-01-27T04:53:47.839Z,98516.50
2023-01-27T04:56:29.925Z,98516.72
2023-01-27T04:59:06.802Z,98513.50
2023-01-27T05:01:34.550Z,98518.50
2023-01-27T05:04:02.156Z,98520.66
2023-01-27T05:06:29.438Z,98535.22
2023-01-27T05:08:56.887Z,98525.00
2023-01-27T05:11:24.573Z,98533.22
2023-01-27T05:13:51.939Z,98531.31
2023-01-27T05:16:20.262Z,98532.38
2023-01-27T05:18:49.783Z,98532.84
2023-01-27T05:21:21.569Z,98530.00
2023-01-27T05:23:49.521Z,98534.03
2023-01-27T05:26:21.999Z,98529.28
2023-01-27T05:28:50.476Z,98527.84
2023-01-27T05:31:24.141Z,98529.84
2023-01-27T05:33:53.694Z,98533.53
2023-01-27T05:36:23.765Z,98543.03
2023-01-27T05:38:51.316Z,98535.91
2023-01-27T05:41:19.978Z,98530.34
2023-01-27T05:43:52.332Z,98526.84
2023-01-27T05:46:24.090Z,98528.88
2023-01-27T05:48:56.616Z,98530.44
2023-01-27T05:51:25.521Z,98529.25
2023-01-27T05:53:54.971Z,98533.31
2023-01-27T05:56:22.837Z,98538.75
2023-01-27T05:58:50.215Z,98542.31
2023-01-27T06:01:24.379Z,98550.75
2023-01-27T06:03:52.087Z,98539.00
2023-01-27T06:06:22.474Z,98535.22
2023-01-27T06:08:50.132Z,98539.47
2023-01-27T06:11:19.960Z,98537.81
2023-01-27T06:13:47.963Z,98539.25
2023-01-27T06:16:18.286Z,98549.53
2023-01-27T06:18:46.384Z,98548.88
2023-01-27T06:21:15.477Z,98548.94
2023-01-27T06:23:43.449Z,98557.03
2023-01-27T06:26:17.294Z,98559.25
2023-01-27T06:28:44.692Z,98554.91
2023-01-27T06:31:18.013Z,98567.56
2023-01-27T06:33:45.766Z,98558.59
2023-01-27T06:36:16.598Z,98568.41
2023-01-27T06:38:44.429Z,98570.53
2023-01-27T06:41:11.642Z,98579.50
2023-01-27T06:43:39.014Z,98573.16
2023-01-27T06:46:06.628Z,98577.66
2023-01-27T06:48:34.675Z,98589.25
2023-01-27T06:51:02.262Z,98589.38
2023-01-27T06:53:29.742Z,98592.00
2023-01-27T06:55:59.011Z,98601.63
2023-01-27T06:58:26.362Z,98606.25
2023-01-27T07:00:54.035Z,98616.16
2023-01-27T07:03:21.554Z,98600.31
2023-01-27T07:05:48.953Z,98595.44
2023-01-27T07:08:16.190Z,98602.31
2023-01-27T07:10:43.528Z,98592.72
2023-01-27T07:13:13.498Z,98596.28
2023-01-27T07:15:41.178Z,98600.31
2023-01-27T07:18:09.447Z,98608.00
2023-01-27T07:20:36.385Z,98618.34
2023-01-27T07:23:05.127Z,98620.59
2023-01-27T07:25:34.727Z,98625.34
2023-01-27T07:28:03.671Z,98626.41
2023-01-27T07:30:32.043Z,98636.44
2023-01-27T07:33:08.061Z,98632.22
2023-01-27T07:35:37.946Z,98634.50
2023-01-27T07:38:06.138Z,98634.81
2023-01-27T07:40:33.582Z,98640.94
2023-01-27T07:43:01.673Z,98634.69
2023-01-27T07:45:29.521Z,98638.94
2023-01-27T07:48:08.509Z,98643.78
2023-01-27T07:50:36.471Z,98645.78
2023-01-27T07:53:05.646Z,98646.22
2023-01-27T07:55:36.602Z,98637.44
2023-01-27T07:58:03.983Z,98646.44
2023-01-27T08:00:31.947Z,98649.28
2023-01-27T08:03:00.289Z,98651.44
2023-01-27T08:05:28.476Z,98656.28
2023-01-27T08:07:58.581Z,98650.09
2023-01-27T08:10:26.365Z,98655.44
2023-01-27T08:12:53.378Z,98653.44
2023-01-27T08:15:20.750Z,98654.97
2023-01-27T08:17:58.559Z,98660.91
2023-01-27T08:20:27.631Z,98653.31
2023-01-27T08:22:55.094Z,98657.78
2023-01-27T08:25:22.756Z,98661.00
2023-01-27T08:27:54.809Z,98667.41
2023-01-27T08:30:22.369Z,98664.22
2023-01-27T08:32:49.967Z,98666.56
2023-01-27T08:35:17.568Z,98669.50
2023-01-27T08:37:48.162Z,98666.56
2023-01-27T08:40:16.020Z,98670.88
2023-01-27T08:42:43.554Z,98674.34
2023-01-27T08:45:10.978Z,98678.44
2023-01-27T08:47:38.409Z,98678.31
2023-01-27T08:50:06.115Z,98673.22
2023-01-27T08:52:33.464Z,98679.75
2023-01-27T08:55:00.806Z,98671.25
2023-01-27T08:57:28.180Z,98667.41
2023-01-27T08:59:55.096Z,98658.66
2023-01-27T09:02:24.317Z,98658.25
2023-01-27T09:04:51.861Z,98665.88
2023-01-27T09:07:19.608Z,98672.31
2023-01-27T09:09:47.868Z,98663.56
2023-01-27T09:12:15.249Z,98663.63
2023-01-27T09:14:42.256Z,98668.34
2023-01-27T09:17:09.565Z,98678.97
2023-01-27T09:19:37.056Z,98681.06
2023-01-27T09:22:05.233Z,98672.31
2023-01-27T09:24:32.185Z,98664.47
2023-01-27T09:27:00.987Z,98681.50
2023-01-27T09:29:29.336Z,98677.84
2023-01-27T09:31:56.763Z,98679.63
2023-01-27T09:34:24.186Z,98673.47
2023-01-27T09:36:57.570Z,98681.03
2023-01-27T09:39:25.828Z,98680.78
2023-01-27T09:42:30.615Z,98679.63
2023-01-27T09:45:31.976Z,98684.31
2023-01-27T09:48:36.189Z,98679.91
2023-01-27T09:51:53.771Z,98677.84
2023-01-27T09:54:54.756Z,98675.03
2023-01-27T09:57:49.780Z,98663.28
2023-01-27T10:00:47.317Z,98669.81
2023-01-27T10:04:06.000Z,98676.97
2023-01-27T10:06:45.111Z,98675.75
2023-01-27T10:09:57.482Z,98672.78
2023-01-27T10:13:13.248Z,98670.50
2023-01-27T10:15:45.011Z,98686.75
2023-01-27T10:18:35.171Z,98687.28
2023-01-27T10:21:17.606Z,98686.94
2023-01-27T10:24:39.898Z,98693.22
2023-01-27T10:27:21.587Z,98679.91
2023-01-27T10:30:35.002Z,98680.97
2023-01-27T10:33:19.108Z,98682.50
2023-01-27T10:35:59.491Z,98684.81
2023-01-27T10:39:03.797Z,98686.91
2023-01-27T10:42:13.614Z,98687.72
2023-01-27T10:45:22.638Z,98687.06
2023-01-27T10:47:55.238Z,98690.13
2023-01-27T10:50:58.117Z,98685.38
2023-01-27T10:53:44.116Z,98693.56
2023-01-27T10:56:25.808Z,98696.97
2023-01-27T10:59:34.885Z,98689.16
2023-01-27T11:02:24.234Z,98681.59
2023-01-27T11:05:02.752Z,98679.53
2023-01-27T11:07:32.522Z,98670.25
2023-01-27T11:10:06.040Z,98676.34
2023-01-27T11:12:37.718Z,98673.94
2023-01-27T11:15:34.790Z,98671.13
2023-01-27T11:18:21.083Z,98668.53
2023-01-27T11:20:54.587Z,98671.03
2023-01-27T11:23:29.476Z,98669.34
2023-01-27T11:26:25.230Z,98665.72
2023-01-27T11:29:18.747Z,98682.31
2023-01-27T11:32:05.849Z,98681.31
2023-01-27T11:35:04.535Z,98676.59
2023-01-27T11:37:33.012Z,98682.25
2023-01-27T11:40:00.635Z,98682.59
2023-01-27T11:42:33.795Z,98682.34
2023-01-27T11:45:02.011Z,98682.69
2023-01-27T11:47:35.121Z,98678.78
2023-01-27T11:50:04.504Z,98675.25
2023-01-27T11:52:32.649Z,98673.09
2023-01-27T11:55:07.660Z,98665.00
2023-01-27T11:57:38.038Z,98666.47
2023-01-27T12:00:19.716Z,98670.16
2023-01-27T12:02:55.251Z,98665.53
2023-01-27T12:05:32.364Z,98655.22
2023-01-27T12:08:05.353Z,98661.16
2023-01-27T12:10:44.119Z,98659.44
2023-01-27T12:13:19.753Z,98663.88
2023-01-27T12:15:58.188Z,98655.09
2023-01-27T12:18:25.462Z,98654.97
2023-01-27T12:21:08.281Z,98647.66
2023-01-27T12:23:40.289Z,98644.56
2023-01-27T12:26:10.241Z,98637.66
2023-01-27T12:28:41.641Z,98633.88
2023-01-27T12:31:13.360Z,98640.53
2023-01-27T12:33:55.901Z,98626.19
2023-01-27T12:36:23.838Z,98624.53
2023-01-27T12:39:00.116Z,98630.72
2023-01-27T12:41:36.720Z,98645.50
2023-01-27T12:44:18.213Z,98634.34
2023-01-27T12:47:19.584Z,98625.34
2023-01-27T12:49:46.907Z,98622.69
2023-01-27T12:52:20.317Z,98627.00
2023-01-27T12:54:47.857Z,98633.38
2023-01-27T12:57:20.824Z,98627.34
2023-01-27T12:59:58.582Z,98636.59
2023-01-27T13:02:36.113Z,98629.47
2023-01-27T13:05:08.128Z,98624.34
2023-01-27T13:07:48.019Z,98626.28
2023-01-27T13:10:24.191Z,98640.94
2023-01-27T13:12:52.457Z,98633.56
2023-01-27T13:15:22.541Z,98640.03
2023-01-27T13:17:52.200Z,98642.63
2023-01-27T13:20:43.238Z,98644.06
2023-01-27T13:23:16.399Z,98644.72
2023-01-27T13:26:00.770Z,98638.03
2023-01-27T13:28:59.913Z,98638.97
2023-01-27T13:32:04.732Z,98647.63
2023-01-27T13:34:45.717Z,98651.63
2023-01-27T13:37:20.481Z,98653.81
2023-01-27T13:40:10.036Z,98657.31
2023-01-27T13:43:24.146Z,98659.91
2023-01-27T13:46:17.127Z,98667.38
2023-01-27T13:48:47.666Z,98666.25
2023-01-27T13:51:18.396Z,98669.44
2023-01-27T13:53:47.712Z,98673.50
2023-01-27T13:56:20.796Z,98675.97
2023-01-27T13:59:20.650Z,98682.22
2023-01-27T14:01:54.457Z,98687.22
2023-01-27T14:04:34.276Z,98690.19
2023-01-27T14:07:57.706Z,98682.13
2023-01-27T14:10:35.079Z,98683.81
2023-01-27T14:13:44.177Z,98687.72
2023-01-27T14:16:32.078Z,98693.34
2023-01-27T14:19:23.612Z,98688.66
2023-01-27T14:22:09.630Z,98692.34
2023-01-27T14:24:56.529Z,98686.72
2023-01-27T14:27:36.793Z,98689.81
2023-01-27T14:30:33.302Z,98697.19
2023-01-27T14:33:46.660Z,98695.78
2023-01-27T14:36:27.614Z,98706.63
2023-01-27T14:39:23.467Z,98692.31
2023-01-27T14:42:42.863Z,98700.53
2023-01-27T14:45:40.550Z,98682.28
2023-01-27T14:48:45.880Z,98688.47
2023-01-27T14:51:33.463Z,98691.72
2023-01-27T14:54:40.054Z,98696.50
2023-01-27T14:57:11.383Z,98693.88
2023-01-27T14:59:47.736Z,98690.44
2023-01-27T15:02:48.185Z,98702.19
2023-01-27T15:05:43.947Z,98694.13
2023-01-27T15:08:42.916Z,98700.25
2023-01-27T15:11:18.660Z,98694.16
2023-01-27T15:14:16.282Z,98686.16
2023-01-27T15:17:37.524Z,98679.91
2023-01-27T15:20:21.198Z,98671.44
2023-01-27T15:23:23.566Z,98678.94
2023-01-27T15:26:00.266Z,98675.50
2023-01-27T15:28:35.742Z,98676.81
2023-01-27T15:31:14.977Z,98684.41
2023-01-27T15:33:53.258Z,98685.09
2023-01-27T15:36:32.058Z,98695.56
2023-01-27T15:39:11.276Z,98693.78
2023-01-27T15:41:51.970Z,98701.00
2023-01-27T15:44:25.153Z,98697.19
2023-01-27T15:46:54.733Z,98700.94
2023-01-27T15:49:27.837Z,98699.09
2023-01-27T15:52:29.723Z,98705.78
2023-01-27T15:55:01.404Z,98713.06
2023-01-27T15:57:39.152Z,98717.22
2023-01-27T16:00:22.588Z,98734.06
2023-01-27T16:02:54.423Z,98739.97
2023-01-27T16:05:38.387Z,98736.59
2023-01-27T16:08:13.500Z,98738.59
2023-01-27T16:10:41.455Z,98741.78
2023-01-27T16:13:28.514Z,98743.31
2023-01-27T16:16:17.123Z,98748.28
2023-01-27T16:18:52.526Z,98753.50
2023-01-27T16:21:57.444Z,98748.88
2023-01-27T16:24:43.466Z,98750.56
2023-01-27T16:27:34.704Z,98743.28
2023-01-27T16:30:22.088Z,98740.19
2023-01-27T16:32:58.402Z,98755.84
2023-01-27T16:35:26.536Z,98757.19
2023-01-27T16:38:18.459Z,98752.78
2023-01-27T16:40:54.305Z,98749.44
2023-01-27T16:43:29.913Z,98755.38
2023-01-27T16:46:00.257Z,98751.97
2023-01-27T16:48:45.578Z,98760.16
2023-01-27T16:51:21.135Z,98759.41
2023-01-27T16:53:51.227Z,98754.31
2023-01-27T16:56:26.717Z,98756.81
2023-01-27T16:59:02.674Z,98762.78
2023-01-27T17:01:48.624Z,98762.16
2023-01-27T17:04:28.068Z,98758.13
2023-01-27T17:07:11.759Z,98758.97
2023-01-27T17:10:00.842Z,98763.47
2023-01-27T17:12:36.208Z,98763.09
2023-01-27T17:15:20.184Z,98757.56
2023-01-27T17:17:49.443Z,98761.81
2023-01-27T17:20:46.287Z,98762.88
2023-01-27T17:23:43.447Z,98756.47
2023-01-27T17:26:16.630Z,98753.25
2023-01-27T17:28:46.329Z,98762.16
2023-01-27T17:31:19.759Z,98758.94
2023-01-27T17:33:50.275Z,98765.59
2023-01-27T17:36:17.627Z,98762.16
2023-01-27T17:38:48.693Z,98763.09
2023-01-27T17:41:37.451Z,98762.53
2023-01-27T17:44:12.769Z,98768.69
2023-01-27T17:46:40.395Z,98778.28
2023-01-27T17:49:14.772Z,98776.31
2023-01-27T17:51:46.421Z,98777.47
2023-01-27T17:54:31.031Z,98786.41
2023-01-27T17:57:13.352Z,98789.72
2023-01-27T17:59:46.402Z,98783.63
2023-01-27T18:02:28.875Z,98777.84
2023-01-27T18:04:59.675Z,98791.72
2023-01-27T18:07:28.321Z,98783.66
2023-01-27T18:09:56.287Z,98782.94
2023-01-27T18:12:37.680Z,98778.06
2023-01-27T18:15:42.911Z,98784.34
2023-01-27T18:18:18.747Z,98786.50
2023-01-27T18:20:53.637Z,98784.59
2023-01-27T18:23:28.723Z,98776.31
2023-01-27T18:26:46.867Z,98781.63
2023-01-27T18:29:20.069Z,98780.19
2023-01-27T18:31:59.469Z,98775.47
2023-01-27T18:34:33.634Z,98788.41
2023-01-27T18:37:22.957Z,98782.09
2023-01-27T18:39:50.070Z,98788.88
2023-01-27T18:42:19.813Z,98788.88
2023-01-27T18:44:51.115Z,98796.34
2023-01-27T18:47:18.384Z,98798.81
2023-01-27T18:50:26.534Z,98784.38
2023-01-27T18:52:54.167Z,98798.59
2023-01-27T18:55:31.172Z,98783.06
2023-01-27T18:58:00.050Z,98788.00
2023-01-27T19:00:45.631Z,98790.03
2023-01-27T19:03:19.699Z,98791.47
2023-01-27T19:05:48.645Z,98801.22
2023-01-27T19:08:23.371Z,98801.34
2023-01-27T19:10:51.728Z,98796.72
2023-01-27T19:13:19.549Z,98801.41
2023-01-27T19:15:53.631Z,98797.66
2023-01-27T19:18:32.284Z,98803.13
2023-01-27T19:20:59.869Z,98799.34
2023-01-27T19:23:28.456Z,98800.03
2023-01-27T19:25:58.592Z,98797.56
2023-01-27T19:28:28.501Z,98799.56
2023-01-27T19:30:55.907Z,98805.69
2023-01-27T19:33:25.149Z,98807.84
2023-01-27T19:36:16.613Z,98811.66
2023-01-27T19:38:43.942Z,98820.69
2023-01-27T19:41:12.383Z,98808.56
2023-01-27T19:43:41.154Z,98810.72
2023-01-27T19:46:18.125Z,98813.78
2023-01-27T19:48:45.444Z,98818.66
2023-01-27T19:51:12.413Z,98821.88
2023-01-27T19:53:39.794Z,98822.53
2023-01-27T19:56:19.443Z,98824.34
2023-01-27T19:58:52.654Z,98826.22
2023-01-27T20:01:22.383Z,98820.19
2023-01-27T20:03:52.813Z,98826.03
2023-01-27T20:06:26.727Z,98836.34
2023-01-27T20:08:59.877Z,98829.56
2023-01-27T20:11:36.066Z,98829.69
2023-01-27T20:14:16.796Z,98824.69
2023-01-27T20:16:43.939Z,98830.66
2023-01-27T20:19:15.106Z,98832.78
2023-01-27T20:21:46.425Z,98834.66
2023-01-27T20:24:18.901Z,98839.53
2023-01-27T20:26:46.805Z,98832.38
2023-01-27T20:29:14.030Z,98839.31
2023-01-27T20:31:41.915Z,98843.66
2023-01-27T20:34:09.404Z,98839.16
2023-01-27T20:36:36.694Z,98840.94
2023-01-27T20:39:04.259Z,98843.59
2023-01-27T20:41:31.655Z,98844.75
2023-01-27T20:44:02.685Z,98842.03
2023-01-27T20:46:30.576Z,98845.81
2023-01-27T20:48:59.460Z,98849.63
2023-01-27T20:51:27.028Z,98845.34
2023-01-27T20:53:54.104Z,98848.44
2023-01-27T20:56:24.507Z,98855.72
2023-01-27T20:58:51.965Z,98855.91
2023-01-27T21:01:22.207Z,98859.03
2023-01-27T21:03:50.560Z,98857.16
2023-01-27T21:06:19.933Z,98860.94
2023-01-27T21:08:49.027Z,98856.91
2023-01-27T21:11:18.378Z,98857.69
2023-01-27T21:13:45.998Z,98858.41
2023-01-27T21:16:13.531Z,98865.66
2023-01-27T21:18:41.249Z,98867.88
2023-01-27T21:21:14.597Z,98864.69
2023-01-27T21:23:41.917Z,98873.00
2023-01-27T21:26:09.753Z,98875.44
2023-01-27T21:28:37.126Z,98872.81
2023-01-27T21:31:09.805Z,98865.78
2023-01-27T21:33:38.685Z,98864.94
2023-01-27T21:36:10.326Z,98861.69
2023-01-27T21:38:38.601Z,98867.75
2023-01-27T21:41:14.338Z,98867.78
2023-01-27T21:43:59.517Z,98870.97
2023-01-27T21:46:26.856Z,98867.44
2023-01-27T21:48:54.222Z,98861.59
2023-01-27T21:51:21.803Z,98855.84
2023-01-27T21:53:49.112Z,98863.34
2023-01-27T21:56:16.422Z,98856.88
2023-01-27T21:58:43.355Z,98851.03
2023-01-27T22:01:11.010Z,98858.75
2023-01-27T22:03:38.624Z,98863.38
2023-01-27T22:06:07.712Z,98854.34
2023-01-27T22:08:35.776Z,98858.44
2023-01-27T22:11:10.925Z,98859.38
2023-01-27T22:13:39.038Z,98861.81
2023-01-27T22:16:06.934Z,98855.56
2023-01-27T22:18:34.431Z,98862.00
2023-01-27T22:21:02.302Z,98852.00
2023-01-27T22:23:29.685Z,98854.03
2023-01-27T22:25:57.082Z,98859.38
2023-01-27T22:28:25.416Z,98855.47
2023-01-27T22:30:52.866Z,98863.66
2023-01-27T22:33:20.281Z,98855.56
2023-01-27T22:35:47.618Z,98858.44
2023-01-27T22:38:14.672Z,98864.84
2023-01-27T22:40:42.120Z,98851.72
2023-01-27T22:43:10.596Z,98863.03
2023-01-27T22:45:40.911Z,98860.44
2023-01-27T22:48:08.779Z,98866.13
2023-01-27T22:50:37.055Z,98870.19
2023-01-27T22:53:05.342Z,98877.13
2023-01-27T22:55:33.161Z,98867.44
2023-01-27T22:58:01.426Z,98870.19
2023-01-27T23:00:28.445Z,98876.81
2023-01-27T23:02:55.775Z,98867.59
2023-01-27T23:05:22.840Z,98864.09
2023-01-27T23:07:50.180Z,98870.19
2023-01-27T23:10:17.442Z,98870.91
2023-01-27T23:12:44.815Z,98857.78
2023-01-27T23:15:12.258Z,98870.38
2023-01-27T23:17:39.630Z,98872.97
2023-01-27T23:20:07.788Z,98860.59
2023-01-27T23:22:38.399Z,98847.88
2023-01-27T23:25:06.726Z,98858.09
2023-01-27T23:27:34.323Z,98850.50
2023-01-27T23:30:01.842Z,98846.34
2023-01-27T23:32:29.208Z,98851.19
2023-01-27T23:34:56.541Z,98844.53
2023-01-27T23:37:23.879Z,98846.88
2023-01-27T23:39:50.839Z,98855.06
2023-01-27T23:42:18.450Z,98852.38
2023-01-27T23:44:46.750Z,98858.16
2023-01-27T23:47:15.469Z,98867.59
2023-01-27T23:49:42.817Z,98866.78
2023-01-27T23:52:10.133Z,98865.03
2023-01-27T23:54:37.450Z,98867.91
2023-01-27T23:57:04.894Z,98860.91
2023-01-27T23:59:31.821Z,98864.59
